createdAt,value
2023-05-11T00:00:01.322Z,155.30
2023-05-11T00:10:01.153Z,101.50
2023-05-11T00:20:01.394Z,110.40
2023-05-11T00:30:01.203Z,124.80
2023-05-11T00:40:02.188Z,113.40
2023-05-11T00:50:02.276Z,114.00
2023-05-11T01:00:01.052Z,122.70
2023-05-11T01:10:01.428Z,130.00
2023-05-11T01:20:01.126Z,87.70
2023-05-11T01:30:02.995Z,102.60
2023-05-11T01:40:01.136Z,94.90
2023-05-11T01:50:01.274Z,99.80
2023-05-11T02:00:01.059Z,105.40
2023-05-11T02:10:01.060Z,89.50
2023-05-11T02:20:01.034Z,99.80
2023-05-11T02:30:01.043Z,100.60
2023-05-11T02:40:01.143Z,96.90
2023-05-11T02:50:01.259Z,86.10
2023-05-11T03:10:01.163Z,116.30
2023-05-11T03:20:01.150Z,114.50
2023-05-11T03:30:01.070Z,106.30
2023-05-11T03:40:01.121Z,105.40
2023-05-11T03:50:01.116Z,91.40
2023-05-11T04:00:01.300Z,124.40
2023-05-11T04:20:01.087Z,89.20
2023-05-11T04:30:01.237Z,107.00
2023-05-11T04:40:01.078Z,130.50
2023-05-11T04:50:01.321Z,93.60
2023-05-11T05:00:01.315Z,137.40
2023-05-11T05:10:01.153Z,103.80
2023-05-11T05:20:01.035Z,105.90
2023-05-11T05:30:01.189Z,110.70
2023-05-11T05:40:01.110Z,100.70
2023-05-11T05:50:01.059Z,118.40
2023-05-11T06:00:01.037Z,114.40
2023-05-11T06:10:01.132Z,100.70
2023-05-11T06:20:01.301Z,108.30
2023-05-11T06:30:01.040Z,114.40
2023-05-11T06:40:01.327Z,129.60
2023-05-11T06:50:01.373Z,119.10
2023-05-11T07:00:01.654Z,118.50
2023-05-11T07:20:01.079Z,127.60
2023-05-11T07:30:01.576Z,140.10
2023-05-11T07:40:01.080Z,132.30
2023-05-11T07:50:01.293Z,112.30
2023-05-11T08:00:01.324Z,160.90
2023-05-11T08:20:01.005Z,129.20
2023-05-11T08:30:01.336Z,160.20
2023-05-11T08:40:01.373Z,221.30
2023-05-11T09:00:03.004Z,275.20
2023-05-11T09:10:00.995Z,336.20
2023-05-11T09:20:03.439Z,406.80
2023-05-11T09:30:01.030Z,443.40
2023-05-11T09:50:01.425Z,536.10
2023-05-11T10:00:01.114Z,576.90
2023-05-11T10:10:02.599Z,598.70
2023-05-11T10:20:01.480Z,645.90
2023-05-11T10:30:01.360Z,669.30
2023-05-11T10:40:01.351Z,677.70
2023-05-11T10:50:01.343Z,699.50
2023-05-11T11:00:01.313Z,675.30
2023-05-11T11:10:01.133Z,613.20
2023-05-11T11:20:01.261Z,678.50
2023-05-11T11:30:01.392Z,700.70
2023-05-11T11:40:09.345Z,725.70
2023-05-11T11:50:01.571Z,762.70
2023-05-11T12:00:01.139Z,762.60
2023-05-11T12:10:01.354Z,714.40
2023-05-11T12:20:01.203Z,697.10
2023-05-11T12:30:01.173Z,674.80
2023-05-11T12:40:01.156Z,671.40
2023-05-11T12:50:01.236Z,672.60
2023-05-11T13:00:01.141Z,669.00
2023-05-11T13:10:01.145Z,645.20
2023-05-11T13:20:01.365Z,626.80
2023-05-11T13:30:01.470Z,674.40
2023-05-11T13:40:01.209Z,657.80
2023-05-11T13:50:01.250Z,633.60
2023-05-11T14:10:01.165Z,664.90
2023-05-11T14:20:01.202Z,707.30
2023-05-11T14:30:01.211Z,716.70
2023-05-11T14:40:01.180Z,703.10
2023-05-11T14:50:01.195Z,716.70
2023-05-11T15:00:01.145Z,733.30
2023-05-11T15:10:01.279Z,722.10
2023-05-11T15:20:01.156Z,665.20
2023-05-11T15:30:01.350Z,659.70
2023-05-11T15:40:01.155Z,648.00
2023-05-11T15:50:01.384Z,677.50
2023-05-11T16:00:01.409Z,654.50
2023-05-11T16:10:01.217Z,661.30
2023-05-11T16:20:01.201Z,674.70
2023-05-11T16:30:08.421Z,668.80
2023-05-11T16:40:01.126Z,672.70
2023-05-11T16:50:01.181Z,685.30
2023-05-11T17:00:01.342Z,658.10
2023-05-11T17:10:01.170Z,664.30
2023-05-11T17:20:01.127Z,678.50
2023-05-11T17:30:01.123Z,657.90
2023-05-11T17:40:01.266Z,638.20
2023-05-11T17:50:01.177Z,662.40
2023-05-11T18:00:01.200Z,669.60
2023-05-11T18:10:01.161Z,620.80
2023-05-11T18:20:01.218Z,645.60
2023-05-11T18:30:01.254Z,667.40
2023-05-11T18:40:01.226Z,608.10
2023-05-11T18:50:01.489Z,609.00
2023-05-11T19:00:01.411Z,600.00
2023-05-11T19:10:01.505Z,618.10
2023-05-11T19:20:01.090Z,566.30
2023-05-11T19:30:01.202Z,570.80
2023-05-11T19:40:19.206Z,512.50
2023-05-11T19:50:01.198Z,500.50
2023-05-11T20:00:01.268Z,469.10
2023-05-11T20:10:01.143Z,425.10
2023-05-11T20:20:01.139Z,401.70
2023-05-11T20:30:01.206Z,347.70
2023-05-11T20:40:01.198Z,355.40
2023-05-11T21:00:04.468Z,295.80
2023-05-11T21:20:01.168Z,273.30
2023-05-11T21:30:01.206Z,223.90
2023-05-11T21:40:01.173Z,182.00
2023-05-11T21:50:01.128Z,247.70
2023-05-11T22:00:01.172Z,184.80
2023-05-11T22:10:01.230Z,144.00
2023-05-11T22:20:01.229Z,194.60
2023-05-11T22:30:01.266Z,163.60
2023-05-11T22:40:01.204Z,187.60
2023-05-11T22:50:01.165Z,192.10
2023-05-11T23:00:01.240Z,157.70
2023-05-11T23:10:01.180Z,131.80
2023-05-11T23:20:00.510Z,162.80
2023-05-11T23:30:01.214Z,135.70
2023-05-11T23:40:01.176Z,122.10
2023-05-11T23:50:01.131Z,177.10
